createdAt,value
2017-05-01T13:44:09.514Z,20.88
2017-05-01T13:45:18.342Z,20.91
2017-05-01T13:46:27.170Z,20.87
2017-05-01T13:47:35.997Z,20.84
2017-05-01T13:48:44.948Z,20.83
2017-05-01T13:49:53.811Z,20.88
2017-05-01T13:51:02.668Z,20.9
2017-05-01T13:52:11.614Z,20.86
2017-05-01T13:53:20.457Z,21.06
2017-05-01T13:54:29.317Z,21.15
2017-05-01T13:55:38.465Z,21.06
2017-05-01T13:56:47.314Z,21.18
2017-05-01T13:57:56.830Z,21.24
2017-05-01T13:59:05.663Z,21.34
2017-05-01T14:00:14.841Z,21.34
2017-05-01T14:01:23.689Z,21.38
2017-05-01T14:02:32.532Z,21.42
2017-05-01T14:03:41.445Z,21.4
2017-05-01T14:04:50.298Z,21.4
2017-05-01T14:05:59.136Z,21.4
2017-05-01T14:07:08.402Z,21.39
2017-05-01T14:08:17.537Z,21.46
2017-05-01T14:09:26.979Z,21.46
2017-05-01T14:10:35.851Z,21.4
2017-05-01T14:11:44.714Z,21.57
2017-05-01T14:12:53.554Z,21.52
2017-05-01T14:14:02.392Z,21.52
2017-05-01T14:15:11.281Z,21.55
2017-05-01T14:16:20.116Z,21.45
2017-05-01T14:17:29.007Z,21.58
2017-05-01T14:18:37.849Z,21.63
2017-05-01T14:19:46.686Z,21.64
2017-05-01T14:20:55.553Z,21.61
2017-05-01T14:22:04.627Z,21.68
2017-05-01T14:23:13.467Z,21.7
2017-05-01T14:24:22.311Z,21.73
2017-05-01T14:25:31.317Z,21.65
2017-05-01T14:26:40.157Z,21.71
2017-05-01T14:27:49.171Z,21.73
2017-05-01T14:28:58.037Z,21.73
2017-05-01T14:30:06.877Z,21.78
2017-05-01T14:31:15.721Z,21.71
2017-05-01T14:32:24.560Z,21.68
2017-05-01T14:33:33.402Z,21.8
2017-05-01T14:34:42.565Z,21.79
2017-05-01T14:35:51.414Z,21.85
2017-05-01T14:37:00.262Z,21.79
2017-05-01T14:38:09.170Z,21.75
2017-05-01T14:39:18.037Z,21.78
2017-05-01T14:40:26.874Z,21.86
2017-05-01T14:41:35.725Z,21.83
2017-05-01T14:42:44.629Z,21.89
2017-05-01T14:43:53.626Z,21.95
2017-05-01T14:45:02.958Z,21.99
2017-05-01T14:46:11.890Z,21.94
2017-05-01T14:47:20.759Z,21.96
2017-05-01T14:48:29.616Z,21.85
2017-05-01T14:49:38.472Z,21.95
2017-05-01T14:50:47.304Z,21.94
2017-05-01T14:51:56.152Z,21.92
2017-05-01T14:53:05.043Z,22.02
2017-05-01T14:54:13.890Z,21.92
2017-05-01T14:55:23.003Z,21.94
2017-05-01T14:56:31.835Z,21.95
2017-05-01T14:57:40.874Z,22.02
2017-05-01T14:58:50.131Z,22.13
2017-05-01T14:59:58.978Z,22.13
2017-05-01T15:01:07.827Z,22.17
2017-05-01T15:02:16.670Z,22.21
2017-05-01T15:03:25.838Z,22.17
2017-05-01T15:04:34.671Z,22.19
2017-05-01T15:05:43.545Z,22.2
2017-05-01T15:06:52.425Z,22.14
2017-05-01T15:08:01.721Z,22.05
2017-05-01T15:09:10.784Z,22.09
2017-05-01T15:10:19.634Z,22.09
2017-05-01T15:11:28.487Z,22.04
2017-05-01T15:12:37.321Z,22.02
2017-05-01T15:13:46.270Z,22.06
2017-05-01T15:14:55.661Z,22.14
2017-05-01T15:16:04.600Z,22.09
2017-05-01T15:17:13.442Z,22.23
2017-05-01T15:18:22.322Z,22.24
2017-05-01T15:19:31.203Z,22.21
2017-05-01T15:20:40.042Z,22.19
2017-05-01T15:21:49.018Z,22.2
2017-05-01T15:48:30.882Z,21.73
2017-05-01T15:49:41.096Z,21.67
2017-05-01T15:50:49.942Z,21.61
2017-05-01T15:51:59.101Z,21.61
2017-05-01T15:53:07.943Z,21.67
2017-05-01T15:54:16.809Z,21.73
2017-05-01T15:55:25.642Z,21.65
2017-05-01T15:56:34.481Z,21.76
2017-05-01T15:57:43.361Z,21.76
2017-05-01T15:58:52.204Z,21.71
2017-05-01T16:00:01.096Z,21.8
2017-05-01T16:01:10.158Z,21.75
2017-05-01T16:02:19.041Z,21.82
2017-05-01T16:03:27.877Z,21.83
2017-05-01T16:04:36.723Z,21.82
2017-05-01T16:05:45.885Z,21.82
2017-05-01T16:06:54.937Z,21.85
2017-05-01T16:08:03.930Z,21.85
2017-05-01T16:09:12.795Z,21.86
2017-05-01T16:10:21.654Z,21.9
2017-05-01T16:11:30.800Z,21.89
2017-05-01T16:12:39.647Z,21.92
2017-05-01T16:13:48.545Z,21.9
2017-05-01T16:14:57.707Z,21.94
2017-05-01T16:16:06.546Z,22.04
2017-05-01T16:17:15.603Z,21.95
2017-05-01T16:18:24.439Z,22.05
2017-05-01T16:19:33.279Z,21.9
2017-05-01T16:20:42.111Z,21.9
2017-05-01T16:21:50.948Z,21.94
2017-05-01T16:22:59.786Z,21.96
2017-05-01T16:24:08.639Z,21.94
2017-05-01T16:25:17.487Z,21.99
2017-05-01T16:26:26.329Z,21.98
2017-05-01T16:27:35.480Z,22.06
2017-05-01T16:28:44.318Z,21.98
2017-05-01T16:29:53.200Z,22.01
2017-05-01T16:31:02.186Z,22.09
2017-05-01T16:32:11.036Z,22.11
2017-05-01T16:33:20.493Z,22.16
2017-05-01T16:34:29.564Z,22.17
2017-05-01T16:35:38.448Z,22.16
2017-05-01T16:36:47.346Z,22.16
2017-05-01T16:37:56.198Z,22.09
2017-05-01T16:39:05.036Z,22.2
2017-05-01T16:40:13.881Z,22.14
2017-05-01T16:41:22.717Z,22.08
2017-05-01T16:42:31.574Z,22.17
2017-05-01T16:43:40.530Z,22.17
2017-05-01T16:44:49.373Z,22.13
2017-05-01T16:45:58.232Z,22.21
2017-05-01T16:47:07.117Z,22.23
2017-05-01T16:48:16.155Z,22.34
2017-05-01T16:49:25.570Z,22.27
2017-05-01T16:50:34.574Z,22.29
2017-05-01T16:51:43.453Z,22.34
2017-05-01T16:52:52.310Z,22.34
2017-05-01T16:54:01.483Z,22.32
2017-05-01T16:55:10.358Z,22.26
2017-05-01T16:56:19.190Z,22.32
2017-05-01T16:57:28.026Z,22.24
2017-05-01T16:58:37.049Z,22.32
2017-05-01T16:59:45.983Z,22.2
2017-05-01T17:00:54.814Z,22.31
2017-05-01T17:02:03.667Z,22.36
2017-05-01T17:03:12.510Z,22.32
2017-05-01T17:04:21.676Z,22.35
2017-05-01T17:05:30.522Z,22.35
2017-05-01T17:06:39.458Z,22.34
2017-05-01T17:07:48.311Z,22.34
2017-05-01T17:08:57.188Z,22.32
2017-05-01T17:10:06.232Z,22.36
2017-05-01T17:11:15.067Z,22.29
2017-05-01T17:12:23.931Z,22.38
2017-05-01T17:13:33.136Z,22.31
2017-05-01T17:14:41.971Z,22.35
2017-05-01T17:15:51.152Z,22.31
2017-05-01T17:16:59.996Z,22.34
2017-05-01T17:18:09.168Z,22.29
2017-05-01T17:19:18.383Z,22.29
2017-05-01T17:20:27.235Z,22.34
2017-05-01T17:21:36.078Z,22.32
2017-05-01T17:22:45.439Z,22.27
2017-05-01T17:23:54.335Z,22.31
2017-05-01T17:25:03.194Z,22.31
2017-05-01T17:26:12.153Z,22.21
2017-05-01T17:27:21.017Z,22.29
2017-05-01T17:28:29.996Z,22.34
2017-05-01T17:29:38.829Z,22.32
2017-05-01T17:30:47.666Z,22.36
2017-05-01T17:31:56.522Z,22.36
2017-05-01T17:33:05.434Z,22.34
2017-05-01T17:34:14.274Z,22.32
2017-05-01T17:35:23.155Z,22.34
2017-05-01T17:36:32.080Z,22.32
2017-05-01T17:37:40.929Z,22.26
2017-05-01T17:38:49.903Z,22.32
2017-05-01T17:39:58.799Z,22.32
2017-05-01T17:41:07.656Z,22.31
2017-05-01T17:42:16.492Z,22.36
2017-05-01T17:43:25.335Z,22.27
2017-05-01T17:44:34.206Z,22.32
2017-05-01T17:45:43.201Z,22.31
2017-05-01T17:46:52.040Z,22.36
2017-05-01T17:48:01.090Z,22.35
2017-05-01T17:49:10.031Z,22.24
2017-05-01T17:50:18.887Z,22.36
2017-05-01T17:51:27.731Z,22.35
2017-05-01T17:52:36.586Z,22.34
2017-05-01T17:53:45.470Z,22.29
2017-05-01T17:54:54.319Z,22.34
2017-05-01T17:56:03.789Z,22.31
2017-05-01T17:57:12.915Z,22.35
2017-05-01T17:58:21.760Z,22.34
2017-05-01T17:59:30.738Z,22.31
2017-05-01T18:00:39.902Z,22.38
2017-05-01T18:01:48.766Z,22.29
2017-05-01T18:02:57.641Z,22.31
2017-05-01T18:04:06.896Z,22.38
2017-05-01T18:05:15.969Z,22.27
2017-05-01T18:06:25.111Z,22.35
2017-05-01T18:07:34.085Z,22.27
2017-05-01T18:08:43.218Z,22.34
2017-05-01T18:09:52.191Z,22.35
2017-05-01T18:11:01.425Z,22.34
2017-05-01T18:12:10.403Z,22.19
2017-05-01T18:13:19.260Z,22.23
2017-05-01T18:14:28.665Z,22.31
2017-05-01T18:15:37.944Z,22.26
2017-05-01T18:16:46.890Z,22.17
2017-05-01T18:17:56.442Z,22.27
2017-05-01T18:19:05.449Z,22.21
2017-05-01T18:20:15.922Z,22.29
2017-05-01T18:21:25.922Z,22.2
2017-05-01T18:22:34.928Z,22.2
2017-05-01T18:23:44.347Z,22.21
2017-05-01T18:24:53.308Z,22.2
2017-05-01T18:26:02.451Z,22.17
2017-05-01T18:27:12.046Z,22.2
2017-05-01T18:28:20.880Z,22.19
2017-05-01T18:29:29.723Z,22.21
2017-05-01T18:30:38.652Z,22.13
2017-05-01T18:31:48.301Z,22.16
2017-05-01T18:32:57.183Z,22.16
2017-05-01T18:34:06.151Z,22.2
2017-05-01T18:35:14.993Z,22.24
2017-05-01T18:36:23.889Z,22.24
2017-05-01T18:37:32.806Z,22.23
2017-05-01T18:38:41.746Z,22.23
2017-05-01T18:39:50.646Z,22.16
2017-05-01T18:40:59.494Z,22.17
2017-05-01T18:42:09.505Z,22.24
2017-05-01T18:43:18.379Z,22.19
2017-05-01T18:44:27.309Z,22.14
2017-05-01T18:45:36.217Z,22.16
2017-05-01T18:46:45.121Z,22.2
2017-05-01T18:47:53.959Z,22.19
2017-05-01T18:49:02.973Z,22.21
2017-05-01T18:50:11.845Z,22.2
2017-05-01T18:51:20.917Z,22.2
2017-05-01T18:52:32.007Z,22.17
2017-05-01T18:53:41.769Z,22.19
2017-05-01T18:54:51.284Z,22.2
2017-05-01T18:56:00.447Z,22.21
2017-05-01T18:57:09.292Z,22.27
2017-05-01T18:58:18.176Z,22.2
2017-05-01T18:59:27.038Z,22.17
2017-05-01T19:00:35.936Z,22.16
2017-05-01T19:01:45.438Z,22.08
2017-05-01T19:02:54.337Z,21.99
2017-05-01T19:04:03.241Z,22.05
2017-05-01T19:05:12.253Z,21.98
2017-05-01T19:06:21.114Z,21.99
2017-05-01T19:07:29.962Z,21.96
2017-05-01T19:08:38.817Z,21.98
2017-05-01T19:09:48.010Z,21.92
2017-05-01T19:10:57.100Z,21.9
2017-05-01T19:12:06.024Z,21.85
2017-05-01T19:13:14.868Z,21.85
2017-05-01T19:14:24.264Z,21.83
2017-05-01T19:15:33.250Z,21.83
2017-05-01T19:16:42.097Z,21.73
2017-05-01T19:17:51.069Z,21.75
2017-05-01T19:18:59.911Z,21.76
2017-05-01T19:20:08.746Z,21.76
2017-05-01T19:21:17.973Z,21.75
2017-05-01T19:22:26.813Z,21.68
2017-05-01T19:23:36.126Z,21.75
2017-05-01T19:24:45.403Z,21.78
2017-05-01T19:25:54.243Z,21.68
2017-05-01T19:27:03.096Z,21.68
2017-05-01T19:28:11.935Z,21.71
2017-05-01T19:29:20.786Z,21.75
2017-05-01T19:30:29.632Z,21.64
2017-05-01T19:31:38.643Z,21.73
2017-05-01T19:32:47.492Z,21.71
2017-05-01T19:33:56.509Z,21.61
2017-05-01T19:35:05.370Z,21.61
2017-05-01T19:36:14.656Z,21.67
2017-05-01T19:37:23.931Z,21.61
2017-05-01T19:38:32.844Z,21.67
2017-05-01T19:39:41.760Z,21.54
2017-05-01T19:40:50.818Z,21.6
2017-05-01T19:42:00.102Z,21.63
2017-05-01T19:43:08.940Z,21.55
2017-05-01T19:44:17.784Z,21.48
2017-05-01T19:45:26.653Z,21.6
2017-05-01T19:46:35.736Z,21.71
2017-05-01T19:47:56.763Z,21.63
